Time;durP1;ratioP1;P1;durP2;ratioP2;P2;SDS_P1;SDS_P2;PMS_P1;PMS_P2;Temp;Humidity;BMP_temperature;BMP_pressure;BME280_temperature;BME280_humidity;BME280_pressure;Samples;Min_cycle;Max_cycle;Signal;HPM_P1;HPM_P2
2022/09/03 00:01:19;;;;;;;16.80;6.80;;;;;;;11.14;60.91;99493.77;104591;1274;62511;-24
2022/09/03 00:03:50;;;;;;;15.90;7.00;;;;;;;11.11;60.27;99488.66;104657;1274;63030;-25
2022/09/03 00:06:22;;;;;;;12.80;7.60;;;;;;;11.07;60.32;99488.75;104520;1274;75354;-25
2022/09/03 00:09:03;;;;;;;14.90;7.60;;;;;;;11.03;60.00;99488.20;104645;1274;76791;-25
2022/09/03 00:11:34;;;;;;;18.50;8.30;;;;;;;11.02;60.13;99486.42;104618;1274;74281;-24
2022/09/03 00:14:14;;;;;;;14.80;7.40;;;;;;;10.99;60.47;99483.13;104696;1274;61982;-25
2022/09/03 00:16:49;;;;;;;56.90;27.60;;;;;;;10.97;60.32;99487.45;104692;1274;62779;-25
2022/09/03 00:19:18;;;;;;;91.50;41.60;;;;;;;10.96;60.01;99487.94;104627;1274;76574;-25
2022/09/03 00:21:56;;;;;;;111.30;50.30;;;;;;;10.94;60.16;99485.30;104657;1274;77026;-25
2022/09/03 00:24:25;;;;;;;74.00;38.00;;;;;;;10.93;60.37;99484.52;104644;1274;75267;-25
2022/09/03 00:26:54;;;;;;;70.70;35.40;;;;;;;10.91;59.98;99484.94;104655;1274;63069;-25
2022/09/03 00:29:28;;;;;;;51.80;28.50;;;;;;;10.91;59.42;99485.13;104625;1274;62833;-25
2022/09/03 00:31:57;;;;;;;46.20;23.40;;;;;;;10.91;59.31;99488.45;104464;1274;75393;-24
2022/09/03 00:34:33;;;;;;;44.20;20.70;;;;;;;10.90;59.16;99485.88;104535;1274;76996;-25
2022/09/03 00:37:00;;;;;;;41.90;20.40;;;;;;;10.90;59.95;99483.84;104494;1274;75437;-25
2022/09/03 00:39:29;;;;;;;47.80;21.90;;;;;;;10.88;59.63;99485.00;104727;1272;62086;-25
2022/09/03 00:42:05;;;;;;;47.10;21.90;;;;;;;10.88;60.12;99486.41;104698;1274;61999;-25
2022/09/03 00:44:54;;;;;;;39.80;18.20;;;;;;;10.86;59.73;99485.30;104682;1274;76636;-25
2022/09/03 00:48:13;;;;;;;27.30;14.20;;;;;;;10.85;59.96;99483.14;105000;1274;77035;-25
2022/09/03 00:50:52;;;;;;;23.40;11.30;;;;;;;10.83;59.89;99479.61;104772;1272;74326;-24
2022/09/03 00:53:52;;;;;;;21.60;11.10;;;;;;;10.82;59.41;99478.14;104831;1274;63298;-25
2022/09/03 00:56:31;;;;;;;20.40;10.30;;;;;;;10.81;59.98;99484.98;104460;1274;61875;-25
2022/09/03 00:59:20;;;;;;;23.80;10.60;;;;;;;10.81;59.97;99485.37;104615;1274;76508;-25
2022/09/03 01:01:58;;;;;;;21.10;11.20;;;;;;;10.79;60.26;99484.98;104850;1274;76204;-23
2022/09/03 01:04:35;;;;;;;18.90;10.20;;;;;;;10.78;60.14;99482.80;104699;1274;75738;-24
2022/09/03 01:07:21;;;;;;;20.80;10.30;;;;;;;10.76;60.14;99484.52;104649;1274;63062;-24
2022/09/03 01:10:05;;;;;;;21.50;10.70;;;;;;;10.75;60.22;99487.73;105043;1274;62826;-24
2022/09/03 01:12:44;;;;;;;20.10;11.10;;;;;;;10.74;60.30;99486.77;104742;1274;76824;-24
2022/09/03 01:15:14;;;;;;;19.10;10.50;;;;;;;10.71;61.06;99488.17;105064;1274;76690;-24
2022/09/03 01:18:03;;;;;;;19.30;11.10;;;;;;;10.70;60.41;99486.84;104903;1271;75360;-24
2022/09/03 01:20:36;;;;;;;18.90;10.60;;;;;;;10.69;60.24;99485.89;104652;1274;62981;-24
2022/09/03 01:23:03;;;;;;;;;;;;;;;10.67;60.33;99486.38;104669;1274;63159;-24
2022/09/03 01:25:52;;;;;;;17.80;9.70;;;;;;;10.65;60.79;99488.61;104924;1274;76540;-24
2022/09/03 01:28:26;;;;;;;18.30;10.90;;;;;;;10.63;61.31;99486.02;104771;1272;77370;-24
2022/09/03 01:31:01;;;;;;;22.30;11.00;;;;;;;10.61;61.52;99490.34;104626;1272;74079;-24
2022/09/03 01:33:43;;;;;;;18.80;10.90;;;;;;;10.60;61.25;99490.45;104600;1274;62876;-24
2022/09/03 01:36:26;;;;;;;20.10;10.60;;;;;;;10.59;61.59;99489.98;104455;1274;63195;-24
2022/09/03 01:38:55;;;;;;;23.20;11.00;;;;;;;10.57;61.26;99489.05;104603;1271;75502;-24
2022/09/03 01:45:00;;;;;;;23.80;12.80;;;;;;;10.51;61.96;99495.70;104593;1272;75755;-24
2022/09/03 01:47:37;;;;;;;23.70;12.20;;;;;;;10.49;62.30;99493.45;104877;1272;63109;-24
2022/09/03 01:50:12;;;;;;;24.10;11.40;;;;;;;10.47;62.06;99492.88;104761;1272;63215;-24
2022/09/03 01:53:24;;;;;;;23.00;11.30;;;;;;;10.47;62.26;99495.69;104825;1271;76316;-24
2022/09/03 01:56:00;;;;;;;27.90;13.30;;;;;;;10.45;62.92;99493.75;104424;1280;76772;-24
2022/09/03 01:58:33;;;;;;;25.50;13.60;;;;;;;10.43;63.14;99492.65;104385;1280;75477;-24
2022/09/03 02:01:21;;;;;;;25.00;14.20;;;;;;;10.41;64.09;99490.23;104138;1274;62836;-24
2022/09/03 02:03:49;;;;;;;23.00;9.60;;;;;;;10.46;63.89;99493.14;104647;1274;61667;-24
2022/09/03 02:06:19;;;;;;;18.40;10.30;;;;;;;11.18;63.13;99495.05;104687;1271;76593;-24
2022/09/03 02:08:46;;;;;;;21.50;11.80;;;;;;;11.92;61.39;99495.05;104721;1271;76932;-24
2022/09/03 02:11:13;;;;;;;21.20;11.10;;;;;;;12.10;60.62;99486.74;104729;1274;73870;-26
2022/09/03 02:13:47;;;;;;;20.70;11.80;;;;;;;12.02;60.73;99490.65;104683;1274;63000;-24
2022/09/03 02:16:15;;;;;;;24.40;13.90;;;;;;;11.86;61.22;99492.62;104643;1274;62761;-24
2022/09/03 02:18:51;;;;;;;24.20;13.40;;;;;;;11.66;61.48;99490.17;104430;1274;75416;-24
2022/09/03 02:21:20;;;;;;;21.80;11.70;;;;;;;11.46;61.83;99493.95;104594;1274;75959;-24
2022/09/03 02:23:47;;;;;;;24.10;14.00;;;;;;;11.29;62.11;99493.70;104344;1274;74389;-25
2022/09/03 02:26:21;;;;;;;20.50;12.00;;;;;;;11.13;63.85;99491.42;104568;1274;62824;-25
2022/09/03 02:28:49;;;;;;;23.10;12.90;;;;;;;10.99;64.57;99485.07;104660;1274;62033;-24
2022/09/03 02:31:16;;;;;;;20.90;11.50;;;;;;;10.90;64.78;99490.05;104633;1274;76714;-24
2022/09/03 02:33:45;;;;;;;20.40;11.10;;;;;;;10.80;65.54;99491.98;104763;1274;77371;-24
2022/09/03 02:36:15;;;;;;;20.90;11.10;;;;;;;10.70;67.53;99487.93;104442;1274;75448;-24
2022/09/03 02:38:43;;;;;;;18.80;7.60;;;;;;;10.61;69.21;99489.41;104818;1274;64660;-24
2022/09/03 02:41:12;;;;;;;15.80;8.80;;;;;;;11.13;68.21;99486.71;104921;1274;63054;-24
2022/09/03 02:43:42;;;;;;;19.30;10.00;;;;;;;11.73;66.96;99487.55;105122;1274;76517;-24
2022/09/03 02:46:15;;;;;;;18.50;9.10;;;;;;;11.77;66.96;99488.76;104640;1274;76839;-24
2022/09/03 02:48:42;;;;;;;20.40;10.10;;;;;;;11.66;67.44;99489.33;104356;1274;75542;-24
2022/09/03 02:51:09;;;;;;;18.10;11.00;;;;;;;11.28;67.88;99487.33;104724;1274;63125;-25
2022/09/03 02:53:41;;;;;;;19.60;11.70;;;;;;;11.06;69.02;99487.62;104685;1274;61671;-24
2022/09/03 02:56:08;;;;;;;18.80;10.10;;;;;;;10.83;69.77;99492.16;104467;1274;76527;-24
2022/09/03 02:58:35;;;;;;;19.10;10.80;;;;;;;10.63;70.76;99493.80;104724;1274;77052;-24
2022/09/03 03:01:03;;;;;;;17.80;11.70;;;;;;;10.54;71.22;99487.49;104654;1274;74106;-24
2022/09/03 03:03:30;;;;;;;13.50;8.40;;;;;;;10.47;71.48;99485.45;104702;1274;63156;-24
2022/09/03 03:05:59;;;;;;;17.90;9.40;;;;;;;10.91;71.29;99483.90;104623;1274;62121;-24
2022/09/03 03:08:27;;;;;;;20.80;10.10;;;;;;;11.49;69.04;99477.80;104640;1274;75455;-25
2022/09/03 03:10:59;;;;;;;24.80;11.80;;;;;;;11.53;67.96;99479.34;104623;1273;75995;-24
2022/09/03 03:13:27;;;;;;;21.80;11.50;;;;;;;11.39;68.83;99475.74;104633;1274;75184;-24
2022/09/03 03:15:58;;;;;;;25.20;12.10;;;;;;;11.20;69.56;99477.70;104682;1274;62765;-25
2022/09/03 03:18:25;;;;;;;26.50;12.20;;;;;;;11.02;70.21;99475.27;104716;1274;63108;-24
2022/09/03 03:20:53;;;;;;;19.20;11.50;;;;;;;10.88;71.79;99474.38;104605;1273;76563;-24
2022/09/03 03:23:20;;;;;;;19.50;11.50;;;;;;;10.75;72.04;99474.70;104931;1274;77008;-24
2022/09/03 03:25:47;;;;;;;20.00;11.80;;;;;;;10.58;71.97;99472.13;105031;1272;75432;-24
2022/09/03 03:28:14;;;;;;;18.50;9.60;;;;;;;10.43;73.29;99472.56;104879;1271;64405;-24
2022/09/03 03:30:41;;;;;;;21.10;11.80;;;;;;;10.89;72.63;99474.55;104712;1274;61649;-24
2022/09/03 03:33:09;;;;;;;23.10;12.20;;;;;;;11.48;70.55;99473.46;104786;1273;76736;-24
2022/09/03 03:35:36;;;;;;;20.60;10.90;;;;;;;11.56;70.33;99474.41;104603;1274;75966;-24
2022/09/03 03:38:03;;;;;;;16.40;10.40;;;;;;;11.38;70.57;99474.11;104598;1271;75413;-24
2022/09/03 03:40:30;;;;;;;25.00;14.90;;;;;;;11.13;71.73;99477.89;104685;1274;62839;-24
2022/09/03 03:42:57;;;;;;;34.20;17.80;;;;;;;10.95;72.17;99481.55;104754;1274;62069;-24
2022/09/03 03:45:25;;;;;;;39.80;18.30;;;;;;;10.80;72.62;99481.05;104731;1274;75447;-24
2022/09/03 03:47:56;;;;;;;29.10;12.00;;;;;;;10.70;73.52;99484.10;104736;1271;77123;-24
2022/09/03 03:50:24;;;;;;;23.20;12.10;;;;;;;11.14;73.70;99483.71;104643;1274;75704;-24
2022/09/03 03:52:51;;;;;;;25.90;12.80;;;;;;;11.67;71.96;99479.61;104599;1274;61173;-24
2022/09/03 03:55:18;;;;;;;18.30;11.00;;;;;;;11.77;71.62;99478.68;104709;1274;61786;-24
2022/09/03 03:57:45;;;;;;;20.00;11.10;;;;;;;11.59;71.54;99479.03;104731;1271;75541;-24
2022/09/03 04:00:14;;;;;;;24.40;12.80;;;;;;;11.42;72.24;99478.33;104733;1274;76974;-24
2022/09/03 04:02:41;;;;;;;18.80;11.20;;;;;;;11.27;72.63;99478.22;104657;1274;75116;-24
2022/09/03 04:05:08;;;;;;;29.80;13.90;;;;;;;11.13;72.93;99483.92;104984;1271;61761;-24
2022/09/03 04:07:37;;;;;;;28.30;13.30;;;;;;;11.01;72.27;99481.25;105022;1274;63126;-24
2022/09/03 04:10:05;;;;;;;39.00;16.30;;;;;;;11.42;72.08;99484.92;104767;1274;76651;-25
2022/09/03 04:12:32;;;;;;;49.80;22.40;;;;;;;11.98;71.18;99484.87;104632;1274;77008;-24
2022/09/03 04:14:59;;;;;;;58.90;26.80;;;;;;;12.09;70.52;99478.07;104730;1274;75451;-24
2022/09/03 04:17:27;;;;;;;58.30;29.00;;;;;;;11.97;71.08;99477.98;104756;1274;62110;-24
2022/09/03 04:19:54;;;;;;;48.50;25.80;;;;;;;11.80;71.65;99486.95;104660;1274;63201;-24
2022/09/03 04:22:21;;;;;;;80.50;46.30;;;;;;;11.59;70.83;99487.77;104691;1274;75501;-24
2022/09/03 04:24:48;;;;;;;81.10;46.00;;;;;;;11.37;71.62;99491.32;104701;1274;77090;-24
2022/09/03 04:27:15;;;;;;;47.70;26.90;;;;;;;11.19;72.22;99492.77;104960;1271;75489;-24
2022/09/03 04:29:42;;;;;;;33.90;15.50;;;;;;;11.05;72.90;99493.45;105083;1274;62271;-24
2022/09/03 04:34:56;;;;;;;36.50;16.30;;;;;;;12.13;71.28;99485.96;104734;1271;76695;-24
2022/09/03 04:37:23;;;;;;;43.60;18.90;;;;;;;12.24;70.23;99490.96;104727;1273;75087;-25
2022/09/03 04:39:51;;;;;;;40.90;21.70;;;;;;;12.08;69.94;99491.35;104696;1273;75423;-25
2022/09/03 04:42:18;;;;;;;42.70;23.40;;;;;;;11.86;71.10;99496.77;104747;1274;62088;-24
2022/09/03 04:44:45;;;;;;;42.40;23.70;;;;;;;11.63;71.96;99495.25;104718;1272;61954;-24
2022/09/03 04:47:13;;;;;;;60.30;30.90;;;;;;;11.49;73.06;99501.22;104704;1274;76569;-24
2022/09/03 04:49:41;;;;;;;61.10;33.00;;;;;;;11.36;72.65;99499.45;104634;1273;76984;-24
2022/09/03 04:52:08;;;;;;;33.20;17.00;;;;;;;11.25;72.79;99495.90;104687;1273;75500;-24
2022/09/03 04:54:36;;;;;;;39.50;18.80;;;;;;;11.79;73.40;99494.20;104707;1274;62034;-24
2022/09/03 04:57:03;;;;;;;45.30;24.40;;;;;;;12.43;72.19;99486.84;104798;1274;61657;-25
2022/09/03 04:59:30;;;;;;;38.40;23.80;;;;;;;12.63;71.91;99487.07;104579;1274;75540;-24
2022/09/03 05:01:57;;;;;;;25.70;16.20;;;;;;;12.50;71.04;99490.27;104761;1273;74925;-25
2022/09/03 05:04:25;;;;;;;26.10;14.10;;;;;;;12.34;71.97;99491.89;104750;1274;74448;-25
2022/09/03 05:06:52;;;;;;;21.80;13.10;;;;;;;12.20;71.65;99491.48;104687;1274;62049;-24
2022/09/03 05:09:19;;;;;;;22.50;11.70;;;;;;;12.12;70.73;99490.25;104615;1274;62907;-24
2022/09/03 05:11:46;;;;;;;19.80;11.40;;;;;;;12.04;71.71;99490.60;104721;1274;76434;-24
2022/09/03 05:14:13;;;;;;;35.00;13.00;;;;;;;12.08;72.89;99486.71;104678;1274;77089;-24
2022/09/03 05:16:40;;;;;;;60.70;20.50;;;;;;;12.51;71.73;99484.23;104693;1274;75310;-25
2022/09/03 05:19:07;;;;;;;37.80;15.20;;;;;;;13.00;70.54;99480.77;104725;1274;61128;-25
2022/09/03 05:21:37;;;;;;;20.90;10.30;;;;;;;13.38;69.83;99484.70;104713;1274;63241;-24
2022/09/03 05:24:04;;;;;;;18.70;9.80;;;;;;;13.35;68.34;99494.34;104720;1274;75562;-24
2022/09/03 05:26:35;;;;;;;14.40;9.20;;;;;;;13.35;68.56;99492.97;104776;1273;77058;-24
2022/09/03 05:29:06;;;;;;;16.20;9.90;;;;;;;13.20;68.98;99492.08;104617;1274;73425;-24
2022/09/03 05:31:35;;;;;;;15.80;8.70;;;;;;;13.22;70.24;99495.42;104438;1274;61103;-25
2022/09/03 05:34:02;;;;;;;15.00;8.60;;;;;;;13.26;69.10;99494.39;104658;1274;62057;-24
2022/09/03 05:36:33;;;;;;;12.70;6.20;;;;;;;13.22;69.60;99492.94;104814;1274;76915;-24
2022/09/03 05:39:00;;;;;;;14.00;6.50;;;;;;;13.65;68.67;99493.55;104517;1274;76854;-24
2022/09/03 05:41:28;;;;;;;13.00;7.00;;;;;;;14.37;67.80;99498.36;104672;1274;75023;-24
2022/09/03 05:43:57;;;;;;;13.10;8.30;;;;;;;14.59;65.90;99496.95;104634;1274;63047;-25
2022/09/03 05:46:32;;;;;;;15.80;7.80;;;;;;;14.47;65.42;99505.52;104740;1274;61940;-25
2022/09/03 05:49:04;;;;;;;16.20;9.90;;;;;;;14.17;66.62;99506.83;104616;1274;76290;-24
2022/09/03 05:51:32;;;;;;;13.90;8.10;;;;;;;13.93;67.91;99503.10;104625;1274;76795;-24
2022/09/03 05:54:00;;;;;;;15.30;9.20;;;;;;;13.74;67.73;99497.95;104592;1274;74479;-24
2022/09/03 05:56:29;;;;;;;19.70;8.10;;;;;;;13.65;68.12;99499.93;104619;1274;62117;-24
2022/09/03 05:58:58;;;;;;;14.80;8.70;;;;;;;13.54;68.49;99497.77;104431;1274;61978;-24
2022/09/03 06:01:30;;;;;;;14.30;6.50;;;;;;;13.45;69.24;99499.06;104644;1274;76585;-25
2022/09/03 06:04:05;;;;;;;14.00;7.50;;;;;;;13.81;68.69;99500.87;104700;1274;77043;-24
2022/09/03 06:06:36;;;;;;;22.10;8.20;;;;;;;14.44;67.19;99500.23;104668;1274;74788;-24
2022/09/03 06:09:05;;;;;;;13.00;8.30;;;;;;;14.53;67.55;99493.62;104669;1274;63230;-25
2022/09/03 06:11:34;;;;;;;16.70;9.20;;;;;;;14.47;67.22;99491.55;104657;1274;63340;-24
2022/09/03 06:14:06;;;;;;;30.50;12.90;;;;;;;14.14;69.13;99494.84;104711;1274;76482;-24
2022/09/03 06:16:36;;;;;;;17.30;10.00;;;;;;;14.09;69.40;99498.79;104630;1274;75753;-24
2022/09/03 06:19:06;;;;;;;17.10;9.40;;;;;;;13.82;69.33;99501.26;104639;1274;74408;-24
2022/09/03 06:21:33;;;;;;;15.00;8.70;;;;;;;13.77;70.23;99504.48;104648;1274;63091;-24
2022/09/03 06:24:01;;;;;;;13.20;6.70;;;;;;;13.74;71.00;99505.70;104635;1274;63348;-24
2022/09/03 06:26:28;;;;;;;13.60;7.20;;;;;;;14.25;68.88;99509.50;104645;1274;76820;-24
2022/09/03 06:28:56;;;;;;;14.30;7.80;;;;;;;14.91;67.12;99510.33;104608;1274;77019;-24
2022/09/03 06:31:23;;;;;;;11.80;7.80;;;;;;;15.10;66.79;99512.92;104696;1274;74338;-24
2022/09/03 06:33:51;;;;;;;13.80;7.90;;;;;;;14.93;66.62;99512.42;104692;1274;63315;-24
2022/09/03 06:36:19;;;;;;;15.20;7.20;;;;;;;14.80;66.63;99515.65;104765;1274;62965;-24
2022/09/03 06:38:46;;;;;;;10.50;6.90;;;;;;;14.59;66.92;99522.79;104883;1274;74555;-24
2022/09/03 06:41:22;;;;;;;11.10;7.10;;;;;;;14.45;67.70;99521.77;104833;1274;75761;-24
2022/09/03 06:43:51;;;;;;;13.00;7.50;;;;;;;14.36;68.02;99521.64;104672;1274;75287;-24
2022/09/03 06:46:20;;;;;;;14.70;6.80;;;;;;;14.21;68.69;99524.09;104619;1274;62744;-24
2022/09/03 06:48:50;;;;;;;14.50;6.70;;;;;;;14.10;68.81;99525.77;104653;1274;63053;-24
2022/09/03 06:51:21;;;;;;;9.50;5.60;;;;;;;14.10;69.52;99527.84;105090;1274;74424;-24
2022/09/03 06:53:50;;;;;;;11.60;5.40;;;;;;;14.72;68.24;99527.06;104884;1274;77029;-24
2022/09/03 06:56:24;;;;;;;10.70;6.60;;;;;;;15.38;66.02;99530.98;104728;1274;75343;-24
2022/09/03 06:58:56;;;;;;;12.60;6.20;;;;;;;15.36;65.51;99530.96;104461;1274;61861;-24
2022/09/03 07:01:25;;;;;;;9.20;5.50;;;;;;;15.28;65.74;99534.89;104573;1274;63046;-24
2022/09/03 07:03:57;;;;;;;8.70;5.30;;;;;;;15.23;65.53;99534.95;104502;1274;76659;-24
2022/09/03 07:06:26;;;;;;;10.50;5.70;;;;;;;15.09;65.47;99532.27;104602;1274;77034;-24
2022/09/03 07:08:53;;;;;;;12.70;6.30;;;;;;;14.93;66.36;99534.95;104643;1274;75372;-24
2022/09/03 07:11:22;;;;;;;10.20;6.20;;;;;;;14.84;66.43;99537.85;104788;1274;62084;-24
2022/09/03 07:13:50;;;;;;;9.20;5.20;;;;;;;14.77;67.36;99540.62;104662;1274;63393;-24
2022/09/03 07:16:18;;;;;;;12.70;6.10;;;;;;;14.69;67.53;99538.64;104616;1274;76654;-24
2022/09/03 07:18:46;;;;;;;10.90;6.00;;;;;;;14.57;67.12;99535.38;104714;1274;77068;-24
2022/09/03 07:21:23;;;;;;;9.90;4.60;;;;;;;14.57;67.40;99538.55;104668;1273;74375;-24
2022/09/03 07:23:52;;;;;;;10.20;5.30;;;;;;;15.22;67.32;99537.66;104706;1274;61151;-24
2022/09/03 07:26:26;;;;;;;5.90;3.70;;;;;;;15.73;64.85;99533.97;104896;1273;62803;-24
2022/09/03 07:28:53;;;;;;;6.30;3.60;;;;;;;15.86;63.87;99536.60;104840;1271;75735;-24
2022/09/03 07:31:24;;;;;;;7.10;3.90;;;;;;;15.78;63.23;99536.83;104615;1274;77031;-24
2022/09/03 07:33:59;;;;;;;6.60;3.50;;;;;;;15.56;63.78;99539.24;104877;1271;75321;-24
2022/09/03 07:36:27;;;;;;;6.70;3.90;;;;;;;15.41;64.62;99546.25;104834;1271;62796;-24
2022/09/03 07:38:57;;;;;;;8.60;4.50;;;;;;;15.33;64.49;99548.97;104424;1272;62197;-24
2022/09/03 07:41:25;;;;;;;10.20;3.80;;;;;;;15.19;64.55;99551.83;104633;1274;76682;-24
2022/09/03 07:43:55;;;;;;;7.30;4.10;;;;;;;15.11;65.36;99555.02;104639;1273;77372;-24
2022/09/03 07:46:25;;;;;;;7.50;4.30;;;;;;;15.09;65.73;99555.31;104781;1271;73301;-24
2022/09/03 07:48:53;;;;;;;7.90;4.50;;;;;;;15.12;66.37;99556.15;104761;1271;62878;-24
2022/09/03 07:51:25;;;;;;;8.20;3.50;;;;;;;15.15;65.94;99555.67;104718;1271;63133;-24
2022/09/03 07:53:54;;;;;;;7.80;3.00;;;;;;;15.68;64.94;99551.98;104620;1274;76589;-24
2022/09/03 07:56:21;;;;;;;6.20;3.70;;;;;;;16.15;62.46;99551.35;104972;1271;77416;-24
2022/09/03 07:58:49;;;;;;;3.90;3.10;;;;;;;16.22;62.61;99555.84;104776;1271;75388;-24
2022/09/03 08:01:17;;;;;;;5.80;3.50;;;;;;;16.13;62.97;99554.22;104835;1272;63182;-24
2022/09/03 08:03:46;;;;;;;7.20;3.40;;;;;;;16.06;63.53;99552.64;104833;1271;61806;-24
2022/09/03 08:06:14;;;;;;;5.90;2.80;;;;;;;15.96;63.49;99556.14;104769;1271;76852;-24
2022/09/03 08:08:41;;;;;;;6.80;3.40;;;;;;;15.53;64.26;99553.18;104818;1271;77200;-24
2022/09/03 08:11:10;;;;;;;9.40;3.30;;;;;;;15.33;65.80;99556.09;104747;1271;75321;-24
2022/09/03 08:13:43;;;;;;;7.10;3.80;;;;;;;15.20;66.31;99550.14;104625;1274;62123;-23
2022/09/03 08:16:11;;;;;;;6.90;3.90;;;;;;;15.27;65.88;99550.38;105096;1271;61988;-24
2022/09/03 08:18:39;;;;;;;8.20;4.30;;;;;;;15.26;65.16;99548.17;104821;1271;75722;-24
2022/09/03 08:21:09;;;;;;;7.00;3.30;;;;;;;15.21;65.12;99547.98;105008;1271;77425;-24
2022/09/03 08:23:41;;;;;;;8.00;4.10;;;;;;;15.06;65.33;99548.61;104603;1271;74200;-23
2022/09/03 08:26:08;;;;;;;9.70;6.10;;;;;;;14.94;65.87;99545.52;104374;1274;63351;-23
2022/09/03 08:28:36;;;;;;;7.30;3.60;;;;;;;15.04;65.84;99550.34;104785;1274;62838;-24
2022/09/03 08:31:20;;;;;;;7.40;3.20;;;;;;;15.81;66.08;99551.45;104723;1274;76606;-24
2022/09/03 08:33:49;;;;;;;5.80;2.70;;;;;;;16.82;62.91;99547.11;104640;1274;76983;-23
2022/09/03 08:36:21;;;;;;;6.10;3.00;;;;;;;17.20;61.40;99543.73;104644;1273;75834;-23
2022/09/03 08:38:53;;;;;;;8.70;3.70;;;;;;;17.38;59.76;99544.55;104586;1274;62077;-24
2022/09/03 08:41:36;;;;;;;8.70;3.90;;;;;;;17.15;59.75;99540.38;104632;1274;63051;-24
2022/09/03 08:44:18;;;;;;;6.30;3.50;;;;;;;17.38;61.71;99540.10;104844;1272;76372;-24
2022/09/03 08:47:01;;;;;;;4.90;2.90;;;;;;;17.57;58.63;99536.83;104826;1274;76031;-23
2022/09/03 08:50:21;;;;;;;4.20;2.80;;;;;;;17.51;57.11;99540.98;105068;1274;75411;-24
2022/09/03 08:53:00;;;;;;;4.40;2.60;;;;;;;17.18;57.45;99534.81;104465;1280;62444;-24
2022/09/03 08:55:30;;;;;;;3.90;2.60;;;;;;;17.22;57.42;99534.20;104523;1280;62793;-24
2022/09/03 08:58:09;;;;;;;7.40;4.00;;;;;;;17.29;55.92;99535.41;104448;1280;76964;-24
2022/09/03 09:00:39;;;;;;;11.20;3.20;;;;;;;17.50;56.29;99535.65;104240;1278;76813;-24
2022/09/03 09:03:14;;;;;;;5.80;3.30;;;;;;;17.45;56.04;99531.86;104247;1279;74575;-24
2022/09/03 09:05:55;;;;;;;9.30;3.70;;;;;;;17.61;55.32;99532.17;104024;1280;63242;-24
2022/09/03 09:08:28;;;;;;;7.40;3.20;;;;;;;17.51;55.36;99529.14;103889;1280;63021;-24
2022/09/03 09:11:05;;;;;;;5.10;2.80;;;;;;;17.79;56.12;99524.16;104243;1280;76616;-23
2022/09/03 09:13:37;;;;;;;6.00;3.40;;;;;;;17.95;55.51;99519.17;104109;1278;76165;-24
2022/09/03 09:16:30;;;;;;;5.40;3.10;;;;;;;17.51;55.68;99511.63;104290;1280;74397;-24
2022/09/03 09:19:17;;;;;;;4.70;2.70;;;;;;;17.71;55.94;99509.41;104250;1280;63479;-24
2022/09/03 09:21:51;;;;;;;4.90;2.20;;;;;;;18.08;55.27;99505.05;104146;1280;61995;-24
2022/09/03 09:24:22;;;;;;;4.20;2.40;;;;;;;18.35;53.67;99502.93;104198;1280;76585;-24
2022/09/03 09:26:55;;;;;;;3.90;2.00;;;;;;;18.59;53.79;99499.68;104350;1274;77133;-24
2022/09/03 09:29:22;;;;;;;8.50;2.70;;;;;;;18.79;52.75;99505.10;104623;1275;75065;-23
2022/09/03 09:31:49;;;;;;;7.30;3.40;;;;;;;18.69;53.40;99504.35;104693;1272;63112;-24
2022/09/03 09:34:17;;;;;;;4.70;2.60;;;;;;;18.80;52.66;99505.82;104851;1271;62942;-24
2022/09/03 09:37:06;;;;;;;4.90;2.20;;;;;;;18.84;48.36;99506.44;104802;1271;76544;-24
2022/09/03 09:39:33;;;;;;;3.60;2.00;;;;;;;18.78;48.26;99507.08;104311;1277;77138;-24
2022/09/03 09:42:08;;;;;;;4.50;2.30;;;;;;;18.75;47.71;99508.67;104373;1277;75500;-24
2022/09/03 09:44:36;;;;;;;2.30;1.80;;;;;;;18.78;47.94;99507.24;104358;1277;62149;-24
2022/09/03 09:47:16;;;;;;;4.70;2.10;;;;;;;18.97;48.55;99504.36;104294;1278;63108;-24
2022/09/03 09:50:01;;;;;;;3.80;2.20;;;;;;;19.14;46.37;99505.67;104311;1277;74501;-24
2022/09/03 09:52:29;;;;;;;2.40;1.70;;;;;;;19.16;46.85;99506.52;104368;1277;76766;-24
2022/09/03 09:55:14;;;;;;;3.20;2.10;;;;;;;19.35;47.02;99507.79;104400;1277;75495;-24
2022/09/03 09:57:41;;;;;;;4.30;2.40;;;;;;;19.51;47.62;99502.33;104350;1277;62870;-24
2022/09/03 10:00:13;;;;;;;7.80;2.30;;;;;;;19.60;47.37;99500.73;104328;1276;61922;-24
2022/09/03 10:02:48;;;;;;;3.70;2.00;;;;;;;19.72;47.69;99504.00;104271;1274;75521;-23
2022/09/03 10:05:39;;;;;;;3.70;2.40;;;;;;;19.78;47.44;99501.03;104263;1274;76989;-24
2022/09/03 10:08:18;;;;;;;5.00;2.30;;;;;;;19.61;47.50;99500.83;104402;1277;75155;-24
2022/09/03 10:10:50;;;;;;;5.20;2.90;;;;;;;19.68;46.15;99500.80;104413;1275;63055;-23
2022/09/03 10:13:23;;;;;;;5.30;3.30;;;;;;;19.80;45.45;99496.34;104738;1272;63142;-24
2022/09/03 10:16:22;;;;;;;4.90;3.10;;;;;;;19.95;45.13;99495.67;104676;1271;76731;-24
2022/09/03 10:18:56;;;;;;;2.30;1.50;;;;;;;20.19;45.81;99494.55;104679;1271;76214;-24
2022/09/03 10:21:26;;;;;;;5.00;2.70;;;;;;;20.24;43.83;99491.11;104888;1274;74062;-24
2022/09/03 10:24:15;;;;;;;4.70;2.60;;;;;;;20.26;44.54;99492.19;104879;1271;63131;-24
2022/09/03 10:26:44;;;;;;;5.00;2.40;;;;;;;20.21;44.45;99494.67;104911;1271;63593;-24
2022/09/03 10:29:18;;;;;;;4.70;2.50;;;;;;;20.14;44.97;99489.14;104716;1274;75680;-24
2022/09/03 10:32:08;;;;;;;7.60;2.70;;;;;;;19.96;45.77;99491.14;104588;1274;77010;-24
2022/09/03 10:35:11;;;;;;;4.90;2.20;;;;;;;19.86;45.98;99487.20;104697;1274;74050;-24
2022/09/03 10:38:03;;;;;;;4.60;2.50;;;;;;;19.72;45.57;99487.46;105081;1274;62009;-24
2022/09/03 10:40:41;;;;;;;4.60;2.70;;;;;;;19.52;45.88;99484.23;103507;1274;1523775;-24
2022/09/03 10:43:08;;;;;;;3.40;2.30;;;;;;;19.33;47.35;99481.33;104660;1274;75555;-24
2022/09/03 10:45:47;;;;;;;4.30;2.50;;;;;;;19.18;47.54;99485.89;105124;1274;75239;-24
2022/09/03 10:48:31;;;;;;;3.40;2.50;;;;;;;19.07;47.24;99486.33;104824;1274;75591;-24
2022/09/03 10:51:03;;;;;;;6.90;3.60;;;;;;;18.93;46.79;99487.93;104624;1274;61951;-24
2022/09/03 10:53:39;;;;;;;4.30;2.20;;;;;;;18.70;46.62;99485.59;104675;1271;61962;-24
2022/09/03 10:56:24;;;;;;;3.80;2.40;;;;;;;18.50;47.33;99491.06;104607;1274;76635;-23
2022/09/03 10:58:59;;;;;;;4.90;2.40;;;;;;;18.38;47.70;99486.61;104808;1274;77044;-23
2022/09/03 11:01:52;;;;;;;3.40;2.40;;;;;;;18.35;47.30;99486.61;104447;1274;75446;-23
2022/09/03 11:04:44;;;;;;;4.10;2.50;;;;;;;18.28;48.23;99490.10;104716;1274;63134;-23
2022/09/03 11:07:12;;;;;;;4.20;2.10;;;;;;;18.30;49.60;99490.86;104649;1274;63267;-23
2022/09/03 11:10:17;;;;;;;6.60;2.80;;;;;;;18.33;49.28;99493.34;104663;1274;76612;-23
2022/09/03 11:13:09;;;;;;;3.40;2.10;;;;;;;18.33;48.28;99486.58;104591;1274;77026;-23
2022/09/03 11:15:48;;;;;;;3.10;2.10;;;;;;;18.32;46.60;99488.30;105006;1274;75120;-23
2022/09/03 11:18:49;;;;;;;3.10;1.90;;;;;;;18.36;44.57;99487.33;104801;1274;61912;-23
2022/09/03 11:21:19;;;;;;;4.60;1.90;;;;;;;18.48;44.56;99483.05;104625;1274;63169;-23
2022/09/03 11:23:49;;;;;;;3.20;2.10;;;;;;;18.62;43.44;99485.77;104487;1274;76386;-23
2022/09/03 11:26:22;;;;;;;3.60;2.20;;;;;;;18.74;43.09;99480.65;104756;1274;77225;-23
2022/09/03 11:29:04;;;;;;;2.90;2.00;;;;;;;18.80;42.47;99480.13;104825;1274;75177;-23
2022/09/03 11:31:40;;;;;;;4.30;2.60;;;;;;;18.95;42.72;99478.17;104851;1274;63074;-23
2022/09/03 11:34:15;;;;;;;5.80;2.60;;;;;;;19.05;42.05;99476.80;105128;1274;61845;-23
2022/09/03 11:37:22;;;;;;;4.40;2.80;;;;;;;19.10;41.89;99476.35;104630;1275;76165;-23
2022/09/03 11:40:02;;;;;;;3.80;2.40;;;;;;;19.11;41.48;99478.48;104665;1274;77144;-23
2022/09/03 11:42:43;;;;;;;3.10;2.30;;;;;;;19.14;42.17;99478.55;104637;1274;75284;-23
2022/09/03 11:45:35;;;;;;;3.70;2.30;;;;;;;19.11;41.95;99474.17;104602;1274;62776;-23
2022/09/03 11:48:02;;;;;;;6.60;2.70;;;;;;;18.94;41.77;99471.27;104491;1274;63054;-23
2022/09/03 11:50:30;;;;;;;5.00;2.20;;;;;;;18.74;42.64;99472.34;104722;1274;76591;-23